sensor_id;sensor_type;location;lat;lon;timestamp;temperature;humidity
24226;DHT22;51462;51.422;5.514;2023-03-01T00:01:05;0.70;99.90
24226;DHT22;51462;51.422;5.514;2023-03-01T00:03:32;0.70;99.90
24226;DHT22;51462;51.422;5.514;2023-03-01T00:05:58;1.00;99.90
24226;DHT22;51462;51.422;5.514;2023-03-01T00:08:24;1.00;99.90
24226;DHT22;51462;51.422;5.514;2023-03-01T00:11:00;1.40;99.90
24226;DHT22;51462;51.422;5.514;2023-03-01T00:13:25;1.20;99.90
24226;DHT22;51462;51.422;5.514;2023-03-01T00:15:51;1.00;99.90
24226;DHT22;51462;51.422;5.514;2023-03-01T00:18:16;0.80;99.90
24226;DHT22;51462;51.422;5.514;2023-03-01T00:20:49;0.90;99.90
24226;DHT22;51462;51.422;5.514;2023-03-01T00:23:15;0.80;99.90
24226;DHT22;51462;51.422;5.514;2023-03-01T00:25:42;0.80;99.90
24226;DHT22;51462;51.422;5.514;2023-03-01T00:28:07;0.60;99.90
24226;DHT22;51462;51.422;5.514;2023-03-01T00:30:33;0.50;99.90
24226;DHT22;51462;51.422;5.514;2023-03-01T00:32:58;0.60;99.90
24226;DHT22;51462;51.422;5.514;2023-03-01T00:35:24;0.70;99.90
24226;DHT22;51462;51.422;5.514;2023-03-01T00:37:49;0.60;99.90
24226;DHT22;51462;51.422;5.514;2023-03-01T00:40:24;0.60;99.90
24226;DHT22;51462;51.422;5.514;2023-03-01T00:42:49;0.40;99.90
24226;DHT22;51462;51.422;5.514;2023-03-01T00:45:15;0.40;99.90
24226;DHT22;51462;51.422;5.514;2023-03-01T00:47:41;0.40;99.90
24226;DHT22;51462;51.422;5.514;2023-03-01T00:50:07;0.30;99.90
24226;DHT22;51462;51.422;5.514;2023-03-01T00:52:33;0.30;99.90
24226;DHT22;51462;51.422;5.514;2023-03-01T00:54:59;0.30;99.90
24226;DHT22;51462;51.422;5.514;2023-03-01T00:57:24;0.30;99.90
24226;DHT22;51462;51.422;5.514;2023-03-01T00:59:50;0.30;99.90
24226;DHT22;51462;51.422;5.514;2023-03-01T01:02:18;0.30;99.90
24226;DHT22;51462;51.422;5.514;2023-03-01T01:04:44;0.20;99.90
24226;DHT22;51462;51.422;5.514;2023-03-01T01:07:09;0.40;99.90
24226;DHT22;51462;51.422;5.514;2023-03-01T01:09:35;0.30;99.90
24226;DHT22;51462;51.422;5.514;2023-03-01T01:12:01;0.20;99.90
24226;DHT22;51462;51.422;5.514;2023-03-01T01:14:26;0.10;99.90
24226;DHT22;51462;51.422;5.514;2023-03-01T01:16:52;0.20;99.90
24226;DHT22;51462;51.422;5.514;2023-03-01T01:19:18;0.10;99.90
24226;DHT22;51462;51.422;5.514;2023-03-01T01:21:43;0.10;99.90
24226;DHT22;51462;51.422;5.514;2023-03-01T01:24:10;0.10;99.90
24226;DHT22;51462;51.422;5.514;2023-03-01T01:26:35;0.00;99.90
24226;DHT22;51462;51.422;5.514;2023-03-01T01:29:03;-0.10;99.90
24226;DHT22;51462;51.422;5.514;2023-03-01T01:31:29;0.00;99.90
24226;DHT22;51462;51.422;5.514;2023-03-01T01:33:56;0.00;99.90
24226;DHT22;51462;51.422;5.514;2023-03-01T01:36:22;0.10;99.90
24226;DHT22;51462;51.422;5.514;2023-03-01T01:38:48;0.00;99.90
24226;DHT22;51462;51.422;5.514;2023-03-01T01:41:14;0.00;99.90
24226;DHT22;51462;51.422;5.514;2023-03-01T01:43:49;0.00;99.90
24226;DHT22;51462;51.422;5.514;2023-03-01T01:46:32;0.50;99.90
24226;DHT22;51462;51.422;5.514;2023-03-01T01:49:03;0.30;99.90
24226;DHT22;51462;51.422;5.514;2023-03-01T01:51:35;0.10;99.90
24226;DHT22;51462;51.422;5.514;2023-03-01T01:54:13;0.10;99.90
24226;DHT22;51462;51.422;5.514;2023-03-01T01:56:42;0.00;99.90
24226;DHT22;51462;51.422;5.514;2023-03-01T01:59:09;-0.10;99.90
24226;DHT22;51462;51.422;5.514;2023-03-01T02:01:36;-0.10;99.90
24226;DHT22;51462;51.422;5.514;2023-03-01T02:04:02;-0.10;99.90
24226;DHT22;51462;51.422;5.514;2023-03-01T02:06:31;-0.10;99.90
24226;DHT22;51462;51.422;5.514;2023-03-01T02:09:01;-0.10;99.90
24226;DHT22;51462;51.422;5.514;2023-03-01T02:11:29;0.00;99.90
24226;DHT22;51462;51.422;5.514;2023-03-01T02:13:55;0.00;99.90
24226;DHT22;51462;51.422;5.514;2023-03-01T02:16:21;0.00;99.90
24226;DHT22;51462;51.422;5.514;2023-03-01T02:18:47;0.10;99.90
24226;DHT22;51462;51.422;5.514;2023-03-01T02:23:42;-0.20;99.90
24226;DHT22;51462;51.422;5.514;2023-03-01T02:26:22;-0.20;99.90
24226;DHT22;51462;51.422;5.514;2023-03-01T02:28:50;0.00;99.90
24226;DHT22;51462;51.422;5.514;2023-03-01T02:31:18;-0.20;99.90
24226;DHT22;51462;51.422;5.514;2023-03-01T02:34:03;-0.30;99.90
24226;DHT22;51462;51.422;5.514;2023-03-01T02:36:44;-0.20;99.90
24226;DHT22;51462;51.422;5.514;2023-03-01T02:39:17;-0.30;99.90
24226;DHT22;51462;51.422;5.514;2023-03-01T02:41:48;-0.30;99.90
24226;DHT22;51462;51.422;5.514;2023-03-01T02:44:15;-0.30;99.90
24226;DHT22;51462;51.422;5.514;2023-03-01T02:46:53;-0.40;99.90
24226;DHT22;51462;51.422;5.514;2023-03-01T02:49:20;-0.40;99.90
24226;DHT22;51462;51.422;5.514;2023-03-01T02:52:08;-0.40;99.90
24226;DHT22;51462;51.422;5.514;2023-03-01T02:55:06;-0.20;99.90
24226;DHT22;51462;51.422;5.514;2023-03-01T02:57:34;-0.10;99.90
24226;DHT22;51462;51.422;5.514;2023-03-01T03:00:08;0.10;99.90
24226;DHT22;51462;51.422;5.514;2023-03-01T03:02:35;0.10;99.90
24226;DHT22;51462;51.422;5.514;2023-03-01T03:05:03;-0.10;99.90
24226;DHT22;51462;51.422;5.514;2023-03-01T03:07:32;-0.20;99.90
24226;DHT22;51462;51.422;5.514;2023-03-01T03:09:58;-0.30;99.90
24226;DHT22;51462;51.422;5.514;2023-03-01T03:12:24;-0.30;99.90
24226;DHT22;51462;51.422;5.514;2023-03-01T03:14:49;-0.30;99.90
24226;DHT22;51462;51.422;5.514;2023-03-01T03:17:15;-0.40;99.90
24226;DHT22;51462;51.422;5.514;2023-03-01T03:19:40;-0.50;99.90
24226;DHT22;51462;51.422;5.514;2023-03-01T03:22:06;-0.10;99.90
24226;DHT22;51462;51.422;5.514;2023-03-01T03:24:34;0.00;99.90
24226;DHT22;51462;51.422;5.514;2023-03-01T03:27:04;-0.20;99.90
24226;DHT22;51462;51.422;5.514;2023-03-01T03:29:30;0.00;99.90
24226;DHT22;51462;51.422;5.514;2023-03-01T03:31:55;0.00;99.90
24226;DHT22;51462;51.422;5.514;2023-03-01T03:34:21;-0.10;99.90
24226;DHT22;51462;51.422;5.514;2023-03-01T03:36:46;-0.20;99.90
24226;DHT22;51462;51.422;5.514;2023-03-01T03:39:12;-0.20;99.90
24226;DHT22;51462;51.422;5.514;2023-03-01T03:41:37;-0.20;99.90
24226;DHT22;51462;51.422;5.514;2023-03-01T03:44:03;-0.30;99.90
24226;DHT22;51462;51.422;5.514;2023-03-01T03:46:29;-0.40;99.90
24226;DHT22;51462;51.422;5.514;2023-03-01T03:48:54;-0.40;99.90
24226;DHT22;51462;51.422;5.514;2023-03-01T03:51:20;-0.50;99.90
24226;DHT22;51462;51.422;5.514;2023-03-01T03:53:48;-0.60;99.90
24226;DHT22;51462;51.422;5.514;2023-03-01T03:56:13;-0.50;99.90
24226;DHT22;51462;51.422;5.514;2023-03-01T03:58:39;-0.60;99.90
24226;DHT22;51462;51.422;5.514;2023-03-01T04:01:05;-0.70;99.90
24226;DHT22;51462;51.422;5.514;2023-03-01T04:03:32;-0.70;99.90
24226;DHT22;51462;51.422;5.514;2023-03-01T04:05:59;-0.50;99.90
24226;DHT22;51462;51.422;5.514;2023-03-01T04:08:25;-0.70;99.90
24226;DHT22;51462;51.422;5.514;2023-03-01T04:10:52;-0.60;99.90
24226;DHT22;51462;51.422;5.514;2023-03-01T04:13:22;-0.70;99.90
24226;DHT22;51462;51.422;5.514;2023-03-01T04:15:51;-0.70;99.90
24226;DHT22;51462;51.422;5.514;2023-03-01T04:18:18;-0.60;99.90
24226;DHT22;51462;51.422;5.514;2023-03-01T04:20:44;-0.70;99.90
24226;DHT22;51462;51.422;5.514;2023-03-01T04:23:15;-0.60;99.90
24226;DHT22;51462;51.422;5.514;2023-03-01T04:28:19;-0.70;99.90
24226;DHT22;51462;51.422;5.514;2023-03-01T04:30:45;-0.80;99.90
24226;DHT22;51462;51.422;5.514;2023-03-01T04:33:11;-0.80;99.90
24226;DHT22;51462;51.422;5.514;2023-03-01T04:35:37;-0.90;99.90
24226;DHT22;51462;51.422;5.514;2023-03-01T04:38:04;-0.80;99.90
24226;DHT22;51462;51.422;5.514;2023-03-01T04:40:30;-0.70;99.90
24226;DHT22;51462;51.422;5.514;2023-03-01T04:42:56;-0.80;99.90
24226;DHT22;51462;51.422;5.514;2023-03-01T04:45:22;-0.80;99.90
24226;DHT22;51462;51.422;5.514;2023-03-01T04:47:47;-0.80;99.90
24226;DHT22;51462;51.422;5.514;2023-03-01T04:50:17;-0.90;99.90
24226;DHT22;51462;51.422;5.514;2023-03-01T04:52:45;-0.50;99.90
24226;DHT22;51462;51.422;5.514;2023-03-01T04:55:12;-0.60;99.90
24226;DHT22;51462;51.422;5.514;2023-03-01T04:57:38;-0.60;99.90
24226;DHT22;51462;51.422;5.514;2023-03-01T05:00:05;-0.70;99.90
24226;DHT22;51462;51.422;5.514;2023-03-01T05:02:56;-0.40;99.90
24226;DHT22;51462;51.422;5.514;2023-03-01T05:05:36;-0.40;99.90
24226;DHT22;51462;51.422;5.514;2023-03-01T05:08:05;-0.40;99.90
24226;DHT22;51462;51.422;5.514;2023-03-01T05:10:32;-0.50;99.90
24226;DHT22;51462;51.422;5.514;2023-03-01T05:12:59;-0.60;99.90
24226;DHT22;51462;51.422;5.514;2023-03-01T05:15:26;-0.70;99.90
24226;DHT22;51462;51.422;5.514;2023-03-01T05:17:54;-0.60;99.90
24226;DHT22;51462;51.422;5.514;2023-03-01T05:20:20;-0.60;99.90
24226;DHT22;51462;51.422;5.514;2023-03-01T05:22:50;-0.40;99.90
24226;DHT22;51462;51.422;5.514;2023-03-01T05:25:16;-0.50;99.90
24226;DHT22;51462;51.422;5.514;2023-03-01T05:27:42;-0.60;99.90
24226;DHT22;51462;51.422;5.514;2023-03-01T05:30:11;-0.60;99.90
24226;DHT22;51462;51.422;5.514;2023-03-01T05:32:50;-0.30;99.90
24226;DHT22;51462;51.422;5.514;2023-03-01T05:35:21;-0.40;99.90
24226;DHT22;51462;51.422;5.514;2023-03-01T05:37:48;-0.60;99.90
24226;DHT22;51462;51.422;5.514;2023-03-01T05:40:16;-0.80;99.90
24226;DHT22;51462;51.422;5.514;2023-03-01T05:42:47;-0.80;99.90
24226;DHT22;51462;51.422;5.514;2023-03-01T05:45:15;-0.80;99.90
24226;DHT22;51462;51.422;5.514;2023-03-01T05:47:42;-0.90;99.90
24226;DHT22;51462;51.422;5.514;2023-03-01T05:50:20;-0.90;99.90
24226;DHT22;51462;51.422;5.514;2023-03-01T05:52:48;-1.00;99.90
24226;DHT22;51462;51.422;5.514;2023-03-01T05:55:16;-1.00;99.90
24226;DHT22;51462;51.422;5.514;2023-03-01T05:57:41;-1.10;99.90
24226;DHT22;51462;51.422;5.514;2023-03-01T06:00:08;-1.10;99.90
24226;DHT22;51462;51.422;5.514;2023-03-01T06:02:34;-1.10;99.90
24226;DHT22;51462;51.422;5.514;2023-03-01T06:04:59;-1.10;99.90
24226;DHT22;51462;51.422;5.514;2023-03-01T06:07:25;-1.10;99.90
24226;DHT22;51462;51.422;5.514;2023-03-01T06:09:50;-1.10;99.90
24226;DHT22;51462;51.422;5.514;2023-03-01T06:12:16;-1.10;99.90
24226;DHT22;51462;51.422;5.514;2023-03-01T06:14:42;-1.10;99.90
24226;DHT22;51462;51.422;5.514;2023-03-01T06:17:08;-1.10;99.90
24226;DHT22;51462;51.422;5.514;2023-03-01T06:19:33;-1.10;99.90
24226;DHT22;51462;51.422;5.514;2023-03-01T06:21:59;-1.10;99.90
24226;DHT22;51462;51.422;5.514;2023-03-01T06:24:24;-1.20;99.90
24226;DHT22;51462;51.422;5.514;2023-03-01T06:26:50;-1.10;99.90
24226;DHT22;51462;51.422;5.514;2023-03-01T06:29:15;-1.20;99.90
24226;DHT22;51462;51.422;5.514;2023-03-01T06:31:41;-1.10;99.90
24226;DHT22;51462;51.422;5.514;2023-03-01T06:34:06;-1.20;99.90
24226;DHT22;51462;51.422;5.514;2023-03-01T06:36:32;-1.20;99.90
24226;DHT22;51462;51.422;5.514;2023-03-01T06:38:57;-1.20;99.90
24226;DHT22;51462;51.422;5.514;2023-03-01T06:41:23;-1.20;99.90
24226;DHT22;51462;51.422;5.514;2023-03-01T06:43:49;-1.30;99.90
24226;DHT22;51462;51.422;5.514;2023-03-01T06:46:14;-1.30;99.90
24226;DHT22;51462;51.422;5.514;2023-03-01T06:48:40;-1.20;99.90
24226;DHT22;51462;51.422;5.514;2023-03-01T06:51:06;-1.30;99.90
24226;DHT22;51462;51.422;5.514;2023-03-01T06:53:31;-1.30;99.90
24226;DHT22;51462;51.422;5.514;2023-03-01T06:55:57;-1.30;99.90
24226;DHT22;51462;51.422;5.514;2023-03-01T06:58:24;-1.00;99.90
24226;DHT22;51462;51.422;5.514;2023-03-01T07:00:49;-1.10;99.90
24226;DHT22;51462;51.422;5.514;2023-03-01T07:03:15;-1.10;99.90
24226;DHT22;51462;51.422;5.514;2023-03-01T07:05:41;-1.10;99.90
24226;DHT22;51462;51.422;5.514;2023-03-01T07:08:06;-0.90;99.90
24226;DHT22;51462;51.422;5.514;2023-03-01T07:10:32;-1.00;99.90
24226;DHT22;51462;51.422;5.514;2023-03-01T07:12:58;-0.90;99.90
24226;DHT22;51462;51.422;5.514;2023-03-01T07:15:24;-1.00;99.90
24226;DHT22;51462;51.422;5.514;2023-03-01T07:17:50;-1.00;99.90
24226;DHT22;51462;51.422;5.514;2023-03-01T07:20:16;-1.00;99.90
24226;DHT22;51462;51.422;5.514;2023-03-01T07:22:42;-1.00;99.90
24226;DHT22;51462;51.422;5.514;2023-03-01T07:25:08;-1.00;99.90
24226;DHT22;51462;51.422;5.514;2023-03-01T07:27:34;-0.90;99.90
24226;DHT22;51462;51.422;5.514;2023-03-01T07:30:00;-0.90;99.90
24226;DHT22;51462;51.422;5.514;2023-03-01T07:32:25;-0.90;99.90
24226;DHT22;51462;51.422;5.514;2023-03-01T07:34:51;-0.80;99.90
24226;DHT22;51462;51.422;5.514;2023-03-01T07:37:17;-0.80;99.90
24226;DHT22;51462;51.422;5.514;2023-03-01T07:39:42;-0.80;99.90
24226;DHT22;51462;51.422;5.514;2023-03-01T07:42:08;-0.70;99.90
24226;DHT22;51462;51.422;5.514;2023-03-01T07:44:34;-0.70;99.90
24226;DHT22;51462;51.422;5.514;2023-03-01T07:47:03;-0.60;99.90
24226;DHT22;51462;51.422;5.514;2023-03-01T07:49:29;-0.50;99.90
24226;DHT22;51462;51.422;5.514;2023-03-01T07:51:55;-0.50;99.90
24226;DHT22;51462;51.422;5.514;2023-03-01T07:54:21;1.00;99.90
24226;DHT22;51462;51.422;5.514;2023-03-01T07:56:47;0.60;99.90
24226;DHT22;51462;51.422;5.514;2023-03-01T07:59:13;0.50;99.90
24226;DHT22;51462;51.422;5.514;2023-03-01T08:01:38;0.40;99.90
24226;DHT22;51462;51.422;5.514;2023-03-01T08:04:04;0.40;99.90
24226;DHT22;51462;51.422;5.514;2023-03-01T08:06:34;0.20;99.90
24226;DHT22;51462;51.422;5.514;2023-03-01T08:09:00;0.60;99.90
24226;DHT22;51462;51.422;5.514;2023-03-01T08:11:25;0.60;99.90
24226;DHT22;51462;51.422;5.514;2023-03-01T08:13:53;0.50;99.90
24226;DHT22;51462;51.422;5.514;2023-03-01T08:16:19;0.60;99.90
24226;DHT22;51462;51.422;5.514;2023-03-01T08:18:44;0.50;99.90
24226;DHT22;51462;51.422;5.514;2023-03-01T08:21:16;0.70;99.90
24226;DHT22;51462;51.422;5.514;2023-03-01T08:23:42;0.70;99.90
24226;DHT22;51462;51.422;5.514;2023-03-01T08:26:11;1.10;99.90
24226;DHT22;51462;51.422;5.514;2023-03-01T08:28:38;1.90;99.90
24226;DHT22;51462;51.422;5.514;2023-03-01T08:31:23;1.40;99.90
24226;DHT22;51462;51.422;5.514;2023-03-01T08:33:50;1.70;99.90
24226;DHT22;51462;51.422;5.514;2023-03-01T08:36:30;1.70;99.90
24226;DHT22;51462;51.422;5.514;2023-03-01T08:38:57;1.60;99.90
24226;DHT22;51462;51.422;5.514;2023-03-01T08:41:22;2.10;99.90
24226;DHT22;51462;51.422;5.514;2023-03-01T08:43:48;1.90;99.90
24226;DHT22;51462;51.422;5.514;2023-03-01T08:46:14;2.10;99.90
24226;DHT22;51462;51.422;5.514;2023-03-01T08:48:40;1.70;99.90
24226;DHT22;51462;51.422;5.514;2023-03-01T08:51:11;1.80;99.90
24226;DHT22;51462;51.422;5.514;2023-03-01T08:53:37;1.50;99.90
24226;DHT22;51462;51.422;5.514;2023-03-01T08:56:03;1.90;99.90
24226;DHT22;51462;51.422;5.514;2023-03-01T08:58:29;2.30;99.90
24226;DHT22;51462;51.422;5.514;2023-03-01T09:00:55;2.50;99.90
24226;DHT22;51462;51.422;5.514;2023-03-01T09:03:23;2.40;99.90
24226;DHT22;51462;51.422;5.514;2023-03-01T09:05:49;2.60;99.90
24226;DHT22;51462;51.422;5.514;2023-03-01T09:08:19;2.60;99.90
24226;DHT22;51462;51.422;5.514;2023-03-01T09:10:45;2.80;99.90
24226;DHT22;51462;51.422;5.514;2023-03-01T09:13:11;2.80;99.90
24226;DHT22;51462;51.422;5.514;2023-03-01T09:15:37;3.00;99.90
24226;DHT22;51462;51.422;5.514;2023-03-01T09:18:03;2.80;99.90
24226;DHT22;51462;51.422;5.514;2023-03-01T09:20:30;3.00;99.90
24226;DHT22;51462;51.422;5.514;2023-03-01T09:22:56;3.10;99.90
24226;DHT22;51462;51.422;5.514;2023-03-01T09:25:22;3.10;99.90
24226;DHT22;51462;51.422;5.514;2023-03-01T09:27:51;3.40;99.90
24226;DHT22;51462;51.422;5.514;2023-03-01T09:30:17;3.90;99.90
24226;DHT22;51462;51.422;5.514;2023-03-01T09:32:42;4.20;99.90
24226;DHT22;51462;51.422;5.514;2023-03-01T09:35:10;4.50;99.90
24226;DHT22;51462;51.422;5.514;2023-03-01T09:37:36;4.60;99.90
24226;DHT22;51462;51.422;5.514;2023-03-01T09:40:04;4.30;99.90
24226;DHT22;51462;51.422;5.514;2023-03-01T09:42:33;4.30;99.90
24226;DHT22;51462;51.422;5.514;2023-03-01T09:45:11;4.20;99.90
24226;DHT22;51462;51.422;5.514;2023-03-01T09:47:37;4.00;99.90
24226;DHT22;51462;51.422;5.514;2023-03-01T09:50:18;4.20;99.90
24226;DHT22;51462;51.422;5.514;2023-03-01T09:53:05;4.40;99.90
24226;DHT22;51462;51.422;5.514;2023-03-01T09:55:38;4.80;99.90
24226;DHT22;51462;51.422;5.514;2023-03-01T09:58:20;4.20;99.90
24226;DHT22;51462;51.422;5.514;2023-03-01T10:00:50;4.60;99.90
24226;DHT22;51462;51.422;5.514;2023-03-01T10:03:25;4.50;99.90
24226;DHT22;51462;51.422;5.514;2023-03-01T10:06:19;4.70;99.90
24226;DHT22;51462;51.422;5.514;2023-03-01T10:09:04;4.90;99.90
24226;DHT22;51462;51.422;5.514;2023-03-01T10:11:32;5.00;99.90
24226;DHT22;51462;51.422;5.514;2023-03-01T10:16:56;5.30;99.90
24226;DHT22;51462;51.422;5.514;2023-03-01T10:19:36;5.50;99.90
24226;DHT22;51462;51.422;5.514;2023-03-01T10:22:22;5.60;99.90
24226;DHT22;51462;51.422;5.514;2023-03-01T10:24:54;5.50;99.90
24226;DHT22;51462;51.422;5.514;2023-03-01T10:27:25;5.50;99.90
24226;DHT22;51462;51.422;5.514;2023-03-01T10:30:05;5.70;99.90
24226;DHT22;51462;51.422;5.514;2023-03-01T10:32:36;5.70;99.90
24226;DHT22;51462;51.422;5.514;2023-03-01T10:35:27;5.70;99.90
24226;DHT22;51462;51.422;5.514;2023-03-01T10:38:05;5.70;99.90
24226;DHT22;51462;51.422;5.514;2023-03-01T10:40:32;5.70;99.90
24226;DHT22;51462;51.422;5.514;2023-03-01T10:43:01;5.80;99.90
24226;DHT22;51462;51.422;5.514;2023-03-01T10:45:37;5.90;99.90
24226;DHT22;51462;51.422;5.514;2023-03-01T10:48:23;5.70;99.90
24226;DHT22;51462;51.422;5.514;2023-03-01T10:56:01;5.90;99.90
24226;DHT22;51462;51.422;5.514;2023-03-01T10:58:28;5.90;99.90
24226;DHT22;51462;51.422;5.514;2023-03-01T11:01:03;5.90;99.90
24226;DHT22;51462;51.422;5.514;2023-03-01T11:03:37;6.10;99.90
24226;DHT22;51462;51.422;5.514;2023-03-01T11:08:46;6.30;99.90
24226;DHT22;51462;51.422;5.514;2023-03-01T11:13:50;6.40;99.90
24226;DHT22;51462;51.422;5.514;2023-03-01T11:16:23;6.40;99.90
24226;DHT22;51462;51.422;5.514;2023-03-01T11:19:01;6.60;99.90
24226;DHT22;51462;51.422;5.514;2023-03-01T11:21:29;6.60;99.90
24226;DHT22;51462;51.422;5.514;2023-03-01T11:23:56;6.70;99.90
24226;DHT22;51462;51.422;5.514;2023-03-01T11:26:23;6.80;99.90
24226;DHT22;51462;51.422;5.514;2023-03-01T11:28:53;6.90;99.90
24226;DHT22;51462;51.422;5.514;2023-03-01T11:31:20;7.00;99.90
24226;DHT22;51462;51.422;5.514;2023-03-01T11:34:14;7.10;99.90
24226;DHT22;51462;51.422;5.514;2023-03-01T11:36:46;7.20;99.90
24226;DHT22;51462;51.422;5.514;2023-03-01T11:42:21;7.40;99.90
24226;DHT22;51462;51.422;5.514;2023-03-01T11:44:54;7.50;99.90
24226;DHT22;51462;51.422;5.514;2023-03-01T11:47:31;7.60;99.90
24226;DHT22;51462;51.422;5.514;2023-03-01T11:58:27;8.10;99.90
24226;DHT22;51462;51.422;5.514;2023-03-01T12:17:11;8.70;99.90
24226;DHT22;51462;51.422;5.514;2023-03-01T12:25:18;8.90;99.90
24226;DHT22;51462;51.422;5.514;2023-03-01T12:27:55;9.50;99.90
24226;DHT22;51462;51.422;5.514;2023-03-01T12:31:00;9.60;99.90
24226;DHT22;51462;51.422;5.514;2023-03-01T12:33:49;9.40;99.90
24226;DHT22;51462;51.422;5.514;2023-03-01T12:36:35;9.50;99.90
24226;DHT22;51462;51.422;5.514;2023-03-01T12:42:19;9.70;99.90
24226;DHT22;51462;51.422;5.514;2023-03-01T12:50:19;9.80;99.90
24226;DHT22;51462;51.422;5.514;2023-03-01T12:52:55;10.10;99.90
24226;DHT22;51462;51.422;5.514;2023-03-01T12:55:39;10.20;99.90
24226;DHT22;51462;51.422;5.514;2023-03-01T12:58:32;10.20;99.90
24226;DHT22;51462;51.422;5.514;2023-03-01T13:04:01;10.70;99.90
24226;DHT22;51462;51.422;5.514;2023-03-01T13:09:20;10.80;99.90
24226;DHT22;51462;51.422;5.514;2023-03-01T13:11:50;10.70;99.90
24226;DHT22;51462;51.422;5.514;2023-03-01T13:16:49;10.80;99.90
24226;DHT22;51462;51.422;5.514;2023-03-01T13:19:17;11.40;99.90
24226;DHT22;51462;51.422;5.514;2023-03-01T13:21:45;10.70;99.90
24226;DHT22;51462;51.422;5.514;2023-03-01T13:24:28;10.70;99.90
24226;DHT22;51462;51.422;5.514;2023-03-01T13:32:35;11.00;99.90
24226;DHT22;51462;51.422;5.514;2023-03-01T13:37:44;11.30;99.90
24226;DHT22;51462;51.422;5.514;2023-03-01T13:42:45;11.80;99.90
24226;DHT22;51462;51.422;5.514;2023-03-01T13:45:21;11.70;99.90
24226;DHT22;51462;51.422;5.514;2023-03-01T13:47:52;11.20;99.90
24226;DHT22;51462;51.422;5.514;2023-03-01T13:50:23;11.50;99.90
24226;DHT22;51462;51.422;5.514;2023-03-01T13:52:59;11.90;99.90
24226;DHT22;51462;51.422;5.514;2023-03-01T13:55:40;11.50;99.90
24226;DHT22;51462;51.422;5.514;2023-03-01T13:58:29;11.60;99.90
24226;DHT22;51462;51.422;5.514;2023-03-01T14:01:01;11.60;99.90
24226;DHT22;51462;51.422;5.514;2023-03-01T14:03:28;11.70;99.90
24226;DHT22;51462;51.422;5.514;2023-03-01T14:06:12;11.70;99.90
24226;DHT22;51462;51.422;5.514;2023-03-01T14:08:38;12.00;99.90
24226;DHT22;51462;51.422;5.514;2023-03-01T14:14:02;12.70;99.90
24226;DHT22;51462;51.422;5.514;2023-03-01T14:19:27;13.00;99.90
24226;DHT22;51462;51.422;5.514;2023-03-01T14:24:52;13.50;99.90
24226;DHT22;51462;51.422;5.514;2023-03-01T14:27:20;13.80;99.90
24226;DHT22;51462;51.422;5.514;2023-03-01T14:30:09;14.20;99.90
24226;DHT22;51462;51.422;5.514;2023-03-01T14:32:35;14.70;99.90
24226;DHT22;51462;51.422;5.514;2023-03-01T14:35:01;15.00;99.90
24226;DHT22;51462;51.422;5.514;2023-03-01T14:37:28;14.60;99.90
24226;DHT22;51462;51.422;5.514;2023-03-01T14:39:54;14.50;99.90
24226;DHT22;51462;51.422;5.514;2023-03-01T14:42:22;14.70;98.60
24226;DHT22;51462;51.422;5.514;2023-03-01T14:44:51;15.70;98.70
24226;DHT22;51462;51.422;5.514;2023-03-01T14:47:34;16.10;98.60
24226;DHT22;51462;51.422;5.514;2023-03-01T14:50:26;16.20;98.20
24226;DHT22;51462;51.422;5.514;2023-03-01T14:52:55;15.30;99.50
24226;DHT22;51462;51.422;5.514;2023-03-01T14:55:27;16.60;93.50
24226;DHT22;51462;51.422;5.514;2023-03-01T14:57:54;17.50;95.00
24226;DHT22;51462;51.422;5.514;2023-03-01T15:00:30;17.40;93.30
24226;DHT22;51462;51.422;5.514;2023-03-01T15:03:19;17.70;91.70
24226;DHT22;51462;51.422;5.514;2023-03-01T15:05:47;17.10;93.10
24226;DHT22;51462;51.422;5.514;2023-03-01T15:08:21;16.60;95.50
24226;DHT22;51462;51.422;5.514;2023-03-01T15:14:25;17.30;94.60
24226;DHT22;51462;51.422;5.514;2023-03-01T15:16:51;17.60;93.50
24226;DHT22;51462;51.422;5.514;2023-03-01T15:19:18;17.00;94.00
24226;DHT22;51462;51.422;5.514;2023-03-01T15:21:48;17.30;93.60
24226;DHT22;51462;51.422;5.514;2023-03-01T15:24:19;17.50;92.10
24226;DHT22;51462;51.422;5.514;2023-03-01T15:29:21;16.90;93.10
24226;DHT22;51462;51.422;5.514;2023-03-01T15:32:23;17.50;92.40
24226;DHT22;51462;51.422;5.514;2023-03-01T15:34:49;17.50;90.30
24226;DHT22;51462;51.422;5.514;2023-03-01T15:37:44;17.50;93.00
24226;DHT22;51462;51.422;5.514;2023-03-01T15:40:25;16.50;93.00
24226;DHT22;51462;51.422;5.514;2023-03-01T15:43:00;15.80;95.60
24226;DHT22;51462;51.422;5.514;2023-03-01T15:45:28;13.80;95.90
24226;DHT22;51462;51.422;5.514;2023-03-01T15:47:58;13.00;97.70
24226;DHT22;51462;51.422;5.514;2023-03-01T15:50:34;12.70;99.90
24226;DHT22;51462;51.422;5.514;2023-03-01T15:53:05;13.10;97.70
24226;DHT22;51462;51.422;5.514;2023-03-01T15:55:32;13.10;97.70
24226;DHT22;51462;51.422;5.514;2023-03-01T15:58:05;12.60;99.90
24226;DHT22;51462;51.422;5.514;2023-03-01T16:00:32;12.40;99.90
24226;DHT22;51462;51.422;5.514;2023-03-01T16:02:58;12.20;99.90
24226;DHT22;51462;51.422;5.514;2023-03-01T16:05:27;11.90;99.90
24226;DHT22;51462;51.422;5.514;2023-03-01T16:07:53;11.90;99.90
24226;DHT22;51462;51.422;5.514;2023-03-01T16:10:19;11.90;99.90
24226;DHT22;51462;51.422;5.514;2023-03-01T16:12:46;12.20;99.90
24226;DHT22;51462;51.422;5.514;2023-03-01T16:15:17;12.00;99.90
24226;DHT22;51462;51.422;5.514;2023-03-01T16:17:43;11.80;99.90
24226;DHT22;51462;51.422;5.514;2023-03-01T16:20:09;11.80;99.90
24226;DHT22;51462;51.422;5.514;2023-03-01T16:22:35;11.70;99.90
24226;DHT22;51462;51.422;5.514;2023-03-01T16:25:01;11.50;99.90
24226;DHT22;51462;51.422;5.514;2023-03-01T16:27:27;11.40;99.90
24226;DHT22;51462;51.422;5.514;2023-03-01T16:29:53;11.20;99.90
24226;DHT22;51462;51.422;5.514;2023-03-01T16:32:19;11.20;99.90
24226;DHT22;51462;51.422;5.514;2023-03-01T16:34:44;11.00;99.90
24226;DHT22;51462;51.422;5.514;2023-03-01T16:37:10;11.00;99.90
24226;DHT22;51462;51.422;5.514;2023-03-01T16:39:38;11.00;99.90
24226;DHT22;51462;51.422;5.514;2023-03-01T16:42:03;11.30;99.90
24226;DHT22;51462;51.422;5.514;2023-03-01T16:44:29;10.90;99.90
24226;DHT22;51462;51.422;5.514;2023-03-01T16:46:55;11.00;99.90
24226;DHT22;51462;51.422;5.514;2023-03-01T16:49:21;11.10;99.90
24226;DHT22;51462;51.422;5.514;2023-03-01T16:51:46;11.00;99.90
24226;DHT22;51462;51.422;5.514;2023-03-01T16:54:12;10.90;99.90
24226;DHT22;51462;51.422;5.514;2023-03-01T16:56:38;10.80;99.50
24226;DHT22;51462;51.422;5.514;2023-03-01T16:59:05;10.90;99.70
24226;DHT22;51462;51.422;5.514;2023-03-01T17:01:31;10.80;99.90
24226;DHT22;51462;51.422;5.514;2023-03-01T17:04:03;10.70;99.90
24226;DHT22;51462;51.422;5.514;2023-03-01T17:06:29;10.20;99.90
24226;DHT22;51462;51.422;5.514;2023-03-01T17:08:54;10.30;99.90
24226;DHT22;51462;51.422;5.514;2023-03-01T17:11:20;10.30;99.90
24226;DHT22;51462;51.422;5.514;2023-03-01T17:13:46;10.10;98.90
24226;DHT22;51462;51.422;5.514;2023-03-01T17:16:14;10.20;99.90
24226;DHT22;51462;51.422;5.514;2023-03-01T17:18:41;10.20;99.20
24226;DHT22;51462;51.422;5.514;2023-03-01T17:21:07;10.20;99.90
24226;DHT22;51462;51.422;5.514;2023-03-01T17:23:33;10.00;99.90
24226;DHT22;51462;51.422;5.514;2023-03-01T17:25:59;9.60;99.80